BER14M EDDE-EDDL
Flight info
| Callsign | BER14M |
|---|---|
| Flight time | 0h 54m |
| Altitude | 20000 |
| Route | LASTO1D LASTO M852 BIRKA Z109 KUMER Q230 WRB T854 DOMUX DOMUX1A |
| Aircraft | DH8D/M-SDE2E3FGRY/H |
Departure
| Time | 2026-05-04 19:08 |
|---|---|
| Airport | Erfurt-Weimar Airport (EDDE) |
Arrival
| Time | 2026-05-04 20:03 |
|---|---|
| Airport | Düsseldorf Airport (EDDL) |
| Time | Latitude | Longitude | Altitude | Speed | Heading |
|---|---|---|---|---|---|
| 2026-05-04 18:32 | 50.97595 | 10.95989 | 1044 ft | 0 kts | 151° |
| 2026-05-04 19:01 | 50.97595 | 10.95990 | 1045 ft | 0 kts | 151° |
| 2026-05-04 19:01 | 50.97598 | 10.95986 | 1045 ft | 2 kts | 151° |
| 2026-05-04 19:01 | 50.97612 | 10.95975 | 1045 ft | 2 kts | 151° |
| 2026-05-04 19:02 | 50.97625 | 10.95963 | 1045 ft | 2 kts | 151° |
| 2026-05-04 19:02 | 50.97638 | 10.95952 | 1045 ft | 2 kts | 151° |
| 2026-05-04 19:02 | 50.97651 | 10.95941 | 1045 ft | 2 kts | 151° |
| 2026-05-04 19:02 | 50.97655 | 10.95937 | 1045 ft | 0 kts | 151° |
| 2026-05-04 19:04 | 50.97644 | 10.95959 | 1045 ft | 9 kts | 104° |
| 2026-05-04 19:04 | 50.97639 | 10.96095 | 1045 ft | 16 kts | 96° |
| 2026-05-04 19:05 | 50.97662 | 10.96246 | 1045 ft | 15 kts | 11° |
| 2026-05-04 19:05 | 50.97724 | 10.96341 | 1045 ft | 13 kts | 96° |
| 2026-05-04 19:05 | 50.97712 | 10.96490 | 1045 ft | 13 kts | 98° |
| 2026-05-04 19:05 | 50.97700 | 10.96633 | 1045 ft | 12 kts | 96° |
| 2026-05-04 19:06 | 50.97690 | 10.96768 | 1045 ft | 12 kts | 98° |
| 2026-05-04 19:06 | 50.97678 | 10.96902 | 1045 ft | 11 kts | 96° |
| 2026-05-04 19:06 | 50.97684 | 10.97117 | 1045 ft | 22 kts | 81° |
| 2026-05-04 19:06 | 50.97704 | 10.97331 | 1045 ft | 15 kts | 81° |
| 2026-05-04 19:07 | 50.97725 | 10.97454 | 1045 ft | 14 kts | 53° |
| 2026-05-04 19:07 | 50.97796 | 10.97581 | 1045 ft | 15 kts | 34° |
| 2026-05-04 19:07 | 50.97847 | 10.97486 | 1045 ft | 25 kts | 278° |
| 2026-05-04 19:07 | 50.97910 | 10.96695 | 1046 ft | 115 kts | 276° |
| 2026-05-04 19:08 | 50.98049 | 10.95120 | 1155 ft | 158 kts | 278° |
| 2026-05-04 19:08 | 50.98264 | 10.93356 | 1589 ft | 171 kts | 280° |
| 2026-05-04 19:08 | 50.98483 | 10.91461 | 2155 ft | 183 kts | 279° |
| 2026-05-04 19:08 | 50.98702 | 10.89478 | 2908 ft | 186 kts | 279° |
| 2026-05-04 19:09 | 50.98843 | 10.87447 | 3671 ft | 188 kts | 277° |
| 2026-05-04 19:09 | 50.98972 | 10.85374 | 4328 ft | 193 kts | 276° |
| 2026-05-04 19:09 | 50.99103 | 10.83266 | 4966 ft | 195 kts | 275° |
| 2026-05-04 19:09 | 50.99237 | 10.81145 | 5620 ft | 196 kts | 275° |
| 2026-05-04 19:10 | 50.99376 | 10.78981 | 6265 ft | 198 kts | 274° |
| 2026-05-04 19:10 | 50.99734 | 10.76897 | 6854 ft | 204 kts | 303° |
| 2026-05-04 19:10 | 51.00927 | 10.75696 | 7350 ft | 214 kts | 351° |
| 2026-05-04 19:10 | 51.02407 | 10.75888 | 7909 ft | 219 kts | 9° |
| 2026-05-04 19:11 | 51.03910 | 10.76342 | 8526 ft | 221 kts | 9° |
| 2026-05-04 19:11 | 51.05422 | 10.76809 | 9092 ft | 225 kts | 12° |
| 2026-05-04 19:11 | 51.06874 | 10.77718 | 9652 ft | 228 kts | 25° |
| 2026-05-04 19:11 | 51.08410 | 10.78241 | 10141 ft | 228 kts | 349° |
| 2026-05-04 19:12 | 51.09912 | 10.77595 | 10727 ft | 226 kts | 340° |
| 2026-05-04 19:12 | 51.12968 | 10.76248 | 11843 ft | 229 kts | 343° |
| 2026-05-04 19:12 | 51.14521 | 10.75647 | 12377 ft | 231 kts | 345° |
| 2026-05-04 19:13 | 51.16064 | 10.75088 | 12875 ft | 233 kts | 345° |
| 2026-05-04 19:13 | 51.17654 | 10.74539 | 13363 ft | 234 kts | 346° |
| 2026-05-04 19:13 | 51.19253 | 10.74009 | 13830 ft | 237 kts | 346° |
| 2026-05-04 19:13 | 51.20859 | 10.73490 | 14266 ft | 239 kts | 346° |
| 2026-05-04 19:14 | 51.22499 | 10.72973 | 14722 ft | 240 kts | 347° |
| 2026-05-04 19:14 | 51.24151 | 10.72460 | 15143 ft | 242 kts | 347° |
| 2026-05-04 19:14 | 51.25790 | 10.71957 | 15575 ft | 243 kts | 347° |
| 2026-05-04 19:14 | 51.27449 | 10.71451 | 15986 ft | 245 kts | 347° |
| 2026-05-04 19:15 | 51.29141 | 10.70938 | 16316 ft | 250 kts | 347° |
| 2026-05-04 19:15 | 51.30851 | 10.70422 | 16660 ft | 253 kts | 347° |
| 2026-05-04 19:15 | 51.32578 | 10.69903 | 17099 ft | 252 kts | 347° |
| 2026-05-04 19:15 | 51.34287 | 10.69391 | 17530 ft | 251 kts | 347° |
| 2026-05-04 19:16 | 51.36000 | 10.68879 | 17949 ft | 250 kts | 346° |
| 2026-05-04 19:16 | 51.37708 | 10.68368 | 18355 ft | 249 kts | 346° |
| 2026-05-04 19:16 | 51.39411 | 10.67859 | 18742 ft | 248 kts | 346° |
| 2026-05-04 19:16 | 51.41085 | 10.67359 | 19104 ft | 248 kts | 346° |
| 2026-05-04 19:17 | 51.42781 | 10.66851 | 19459 ft | 247 kts | 346° |
| 2026-05-04 19:17 | 51.44461 | 10.66348 | 19781 ft | 249 kts | 346° |
| 2026-05-04 19:17 | 51.46205 | 10.65822 | 19910 ft | 260 kts | 346° |
| 2026-05-04 19:17 | 51.48021 | 10.65272 | 19949 ft | 273 kts | 346° |
| 2026-05-04 19:18 | 51.49938 | 10.64692 | 19963 ft | 287 kts | 346° |
| 2026-05-04 19:18 | 51.51856 | 10.63706 | 19943 ft | 293 kts | 325° |
| 2026-05-04 19:18 | 51.53223 | 10.61398 | 19955 ft | 290 kts | 294° |
| 2026-05-04 19:18 | 51.53671 | 10.58277 | 19981 ft | 292 kts | 270° |
| 2026-05-04 19:19 | 51.53660 | 10.54964 | 19967 ft | 301 kts | 267° |
| 2026-05-04 19:19 | 51.53611 | 10.51596 | 19961 ft | 308 kts | 266° |
| 2026-05-04 19:19 | 51.53555 | 10.48129 | 19969 ft | 313 kts | 266° |
| 2026-05-04 19:19 | 51.53497 | 10.44585 | 19963 ft | 319 kts | 266° |
| 2026-05-04 19:20 | 51.53439 | 10.41053 | 19957 ft | 322 kts | 267° |
| 2026-05-04 19:20 | 51.53379 | 10.37417 | 19957 ft | 326 kts | 266° |
| 2026-05-04 19:20 | 51.53318 | 10.33805 | 19957 ft | 328 kts | 266° |
| 2026-05-04 19:20 | 51.53255 | 10.30142 | 19957 ft | 330 kts | 266° |
| 2026-05-04 19:21 | 51.53190 | 10.26401 | 19954 ft | 332 kts | 266° |
| 2026-05-04 19:21 | 51.53125 | 10.22707 | 19944 ft | 333 kts | 266° |
| 2026-05-04 19:21 | 51.53058 | 10.18998 | 19950 ft | 334 kts | 266° |
| 2026-05-04 19:21 | 51.52990 | 10.15277 | 19959 ft | 335 kts | 266° |
| 2026-05-04 19:22 | 51.52921 | 10.11539 | 19940 ft | 335 kts | 266° |
| 2026-05-04 19:22 | 51.52851 | 10.07804 | 19954 ft | 336 kts | 266° |
| 2026-05-04 19:22 | 51.52779 | 10.04057 | 19950 ft | 336 kts | 266° |
| 2026-05-04 19:22 | 51.52705 | 10.00267 | 19947 ft | 337 kts | 266° |
| 2026-05-04 19:23 | 51.52631 | 9.96530 | 19947 ft | 336 kts | 266° |
| 2026-05-04 19:23 | 51.52556 | 9.92805 | 19959 ft | 336 kts | 266° |
| 2026-05-04 19:23 | 51.52479 | 9.89059 | 19955 ft | 337 kts | 266° |
| 2026-05-04 19:23 | 51.52401 | 9.85294 | 19956 ft | 337 kts | 266° |
| 2026-05-04 19:24 | 51.52322 | 9.81554 | 19955 ft | 337 kts | 266° |
| 2026-05-04 19:24 | 51.52242 | 9.77795 | 19957 ft | 337 kts | 266° |
| 2026-05-04 19:24 | 51.52159 | 9.73994 | 19960 ft | 336 kts | 266° |
| 2026-05-04 19:24 | 51.52078 | 9.70299 | 19952 ft | 328 kts | 266° |
| 2026-05-04 19:25 | 51.51995 | 9.66726 | 19950 ft | 307 kts | 265° |
| 2026-05-04 19:25 | 51.51916 | 9.63383 | 19952 ft | 292 kts | 265° |
| 2026-05-04 19:25 | 51.51839 | 9.60202 | 19953 ft | 278 kts | 265° |
| 2026-05-04 19:25 | 51.51765 | 9.57099 | 19964 ft | 279 kts | 265° |
| 2026-05-04 19:26 | 51.51691 | 9.53968 | 19971 ft | 284 kts | 265° |
| 2026-05-04 19:26 | 51.51615 | 9.50771 | 19971 ft | 285 kts | 265° |
| 2026-05-04 19:26 | 51.51538 | 9.47595 | 19967 ft | 283 kts | 265° |
| 2026-05-04 19:26 | 51.51460 | 9.44452 | 19959 ft | 282 kts | 265° |
| 2026-05-04 19:27 | 51.51383 | 9.41333 | 19965 ft | 280 kts | 265° |
| 2026-05-04 19:27 | 51.51305 | 9.38218 | 19965 ft | 279 kts | 265° |
| 2026-05-04 19:27 | 51.51226 | 9.35107 | 19965 ft | 279 kts | 265° |
| 2026-05-04 19:27 | 51.51146 | 9.32000 | 19968 ft | 281 kts | 264° |
| 2026-05-04 19:28 | 51.51066 | 9.28873 | 19969 ft | 282 kts | 264° |
| 2026-05-04 19:28 | 51.50984 | 9.25718 | 19965 ft | 284 kts | 264° |
| 2026-05-04 19:28 | 51.50899 | 9.22529 | 19966 ft | 285 kts | 264° |
| 2026-05-04 19:28 | 51.50814 | 9.19347 | 19963 ft | 285 kts | 264° |
| 2026-05-04 19:29 | 51.50729 | 9.16168 | 19963 ft | 283 kts | 264° |
| 2026-05-04 19:29 | 51.50644 | 9.13053 | 19963 ft | 283 kts | 264° |
| 2026-05-04 19:29 | 51.50565 | 9.09879 | 19962 ft | 284 kts | 266° |
| 2026-05-04 19:29 | 51.50587 | 9.06727 | 19962 ft | 284 kts | 269° |
| 2026-05-04 19:30 | 51.50643 | 9.03589 | 19958 ft | 283 kts | 268° |
| 2026-05-04 19:30 | 51.50696 | 9.00430 | 19951 ft | 282 kts | 268° |
| 2026-05-04 19:30 | 51.50745 | 8.97291 | 19962 ft | 281 kts | 268° |
| 2026-05-04 19:30 | 51.50790 | 8.94183 | 19957 ft | 281 kts | 268° |
| 2026-05-04 19:31 | 51.50834 | 8.91011 | 19954 ft | 280 kts | 268° |
| 2026-05-04 19:31 | 51.50874 | 8.87942 | 19957 ft | 279 kts | 268° |
| 2026-05-04 19:31 | 51.50912 | 8.84823 | 19962 ft | 279 kts | 268° |
| 2026-05-04 19:31 | 51.50950 | 8.81694 | 19963 ft | 279 kts | 268° |
| 2026-05-04 19:32 | 51.50985 | 8.78605 | 19961 ft | 280 kts | 268° |
| 2026-05-04 19:32 | 51.51020 | 8.75456 | 19961 ft | 286 kts | 268° |
| 2026-05-04 19:32 | 51.51055 | 8.72238 | 19966 ft | 288 kts | 268° |
| 2026-05-04 19:32 | 51.51089 | 8.69025 | 19963 ft | 289 kts | 268° |
| 2026-05-04 19:33 | 51.51121 | 8.65806 | 19962 ft | 289 kts | 268° |
| 2026-05-04 19:33 | 51.51153 | 8.62613 | 19965 ft | 290 kts | 268° |
| 2026-05-04 19:33 | 51.51184 | 8.59346 | 19962 ft | 290 kts | 268° |
| 2026-05-04 19:33 | 51.51214 | 8.56137 | 19883 ft | 289 kts | 268° |
| 2026-05-04 19:34 | 51.51241 | 8.52909 | 19662 ft | 287 kts | 268° |
| 2026-05-04 19:34 | 51.51266 | 8.49739 | 19433 ft | 284 kts | 268° |
| 2026-05-04 19:34 | 51.51292 | 8.46584 | 19203 ft | 283 kts | 268° |
| 2026-05-04 19:34 | 51.51316 | 8.43443 | 18981 ft | 283 kts | 268° |
| 2026-05-04 19:35 | 51.51340 | 8.40277 | 18755 ft | 283 kts | 268° |
| 2026-05-04 19:35 | 51.51370 | 8.37077 | 18506 ft | 285 kts | 270° |
| 2026-05-04 19:35 | 51.51793 | 8.33973 | 18146 ft | 289 kts | 289° |
| 2026-05-04 19:35 | 51.52661 | 8.31117 | 17802 ft | 287 kts | 294° |
| 2026-05-04 19:36 | 51.53586 | 8.28278 | 17430 ft | 285 kts | 294° |
| 2026-05-04 19:36 | 51.54500 | 8.25485 | 17086 ft | 281 kts | 295° |
| 2026-05-04 19:36 | 51.55402 | 8.22733 | 17005 ft | 282 kts | 295° |
| 2026-05-04 19:36 | 51.56321 | 8.19943 | 16974 ft | 284 kts | 294° |
| 2026-05-04 19:37 | 51.57243 | 8.17125 | 16963 ft | 282 kts | 294° |
| 2026-05-04 19:37 | 51.58142 | 8.14381 | 16960 ft | 280 kts | 294° |
| 2026-05-04 19:37 | 51.59045 | 8.11633 | 16961 ft | 278 kts | 295° |
| 2026-05-04 19:37 | 51.59943 | 8.08879 | 16968 ft | 281 kts | 295° |
| 2026-05-04 19:38 | 51.60855 | 8.06082 | 16963 ft | 286 kts | 295° |
| 2026-05-04 19:38 | 51.61775 | 8.03246 | 16958 ft | 285 kts | 294° |
| 2026-05-04 19:38 | 51.62685 | 8.00450 | 16954 ft | 282 kts | 295° |
| 2026-05-04 19:38 | 51.63599 | 7.97626 | 16953 ft | 282 kts | 295° |
| 2026-05-04 19:39 | 51.64500 | 7.94834 | 16956 ft | 283 kts | 295° |
| 2026-05-04 19:39 | 51.65402 | 7.92023 | 16948 ft | 284 kts | 295° |
| 2026-05-04 19:39 | 51.66298 | 7.89215 | 16951 ft | 285 kts | 294° |
| 2026-05-04 19:39 | 51.66930 | 7.86254 | 16921 ft | 280 kts | 272° |
| 2026-05-04 19:40 | 51.66516 | 7.83288 | 16948 ft | 271 kts | 238° |
| 2026-05-04 19:40 | 51.65266 | 7.81029 | 16975 ft | 272 kts | 222° |
| 2026-05-04 19:40 | 51.63827 | 7.79032 | 16969 ft | 277 kts | 219° |
| 2026-05-04 19:40 | 51.62333 | 7.77095 | 16960 ft | 274 kts | 218° |
| 2026-05-04 19:41 | 51.60830 | 7.75224 | 16958 ft | 270 kts | 217° |
| 2026-05-04 19:41 | 51.59345 | 7.73421 | 16962 ft | 270 kts | 216° |
| 2026-05-04 19:41 | 51.57836 | 7.71626 | 16965 ft | 270 kts | 216° |
| 2026-05-04 19:41 | 51.56303 | 7.69830 | 16915 ft | 271 kts | 216° |
| 2026-05-04 19:42 | 51.54771 | 7.68060 | 16576 ft | 272 kts | 215° |
| 2026-05-04 19:42 | 51.53252 | 7.66325 | 16197 ft | 268 kts | 215° |
| 2026-05-04 19:42 | 51.51727 | 7.64599 | 15794 ft | 267 kts | 215° |
| 2026-05-04 19:42 | 51.50229 | 7.62899 | 15440 ft | 264 kts | 215° |
| 2026-05-04 19:43 | 51.48724 | 7.61201 | 15059 ft | 263 kts | 214° |
| 2026-05-04 19:43 | 51.47224 | 7.59520 | 14682 ft | 262 kts | 215° |
| 2026-05-04 19:43 | 51.45774 | 7.57892 | 14321 ft | 260 kts | 214° |
| 2026-05-04 19:43 | 51.44288 | 7.56224 | 14044 ft | 255 kts | 215° |
| 2026-05-04 19:44 | 51.42849 | 7.54612 | 13731 ft | 258 kts | 215° |
| 2026-05-04 19:44 | 51.41523 | 7.52665 | 13361 ft | 261 kts | 232° |
| 2026-05-04 19:44 | 51.40498 | 7.50264 | 13001 ft | 259 kts | 236° |
| 2026-05-04 19:44 | 51.39519 | 7.47865 | 12626 ft | 257 kts | 236° |
| 2026-05-04 19:45 | 51.38562 | 7.45514 | 12270 ft | 253 kts | 236° |
| 2026-05-04 19:45 | 51.37595 | 7.43153 | 11881 ft | 250 kts | 236° |
| 2026-05-04 19:45 | 51.36647 | 7.40853 | 11510 ft | 247 kts | 235° |
| 2026-05-04 19:45 | 51.35711 | 7.38583 | 11132 ft | 245 kts | 235° |
| 2026-05-04 19:46 | 51.34782 | 7.36349 | 10779 ft | 241 kts | 235° |
| 2026-05-04 19:46 | 51.33872 | 7.34155 | 10422 ft | 238 kts | 235° |
| 2026-05-04 19:46 | 51.32961 | 7.31965 | 10043 ft | 236 kts | 234° |
| 2026-05-04 19:46 | 51.32051 | 7.29786 | 9676 ft | 235 kts | 234° |
| 2026-05-04 19:47 | 51.31157 | 7.27644 | 9316 ft | 232 kts | 233° |
| 2026-05-04 19:47 | 51.30266 | 7.25518 | 8947 ft | 231 kts | 234° |
| 2026-05-04 19:47 | 51.29368 | 7.23377 | 8582 ft | 229 kts | 233° |
| 2026-05-04 19:47 | 51.28487 | 7.21268 | 8214 ft | 228 kts | 234° |
| 2026-05-04 19:48 | 51.27623 | 7.19200 | 8051 ft | 224 kts | 234° |
| 2026-05-04 19:48 | 51.26762 | 7.17140 | 7999 ft | 226 kts | 234° |
| 2026-05-04 19:48 | 51.25990 | 7.14950 | 7958 ft | 229 kts | 250° |
| 2026-05-04 19:48 | 51.26076 | 7.12455 | 7955 ft | 235 kts | 290° |
| 2026-05-04 19:49 | 51.27142 | 7.10464 | 7976 ft | 241 kts | 317° |
| 2026-05-04 19:49 | 51.28507 | 7.08790 | 7955 ft | 247 kts | 318° |
| 2026-05-04 19:49 | 51.29945 | 7.07263 | 7940 ft | 252 kts | 333° |
| 2026-05-04 19:49 | 51.31647 | 7.06997 | 7943 ft | 254 kts | 13° |
| 2026-05-04 19:50 | 51.32933 | 7.08120 | 7942 ft | 250 kts | 43° |
| 2026-05-04 19:50 | 51.34267 | 7.10617 | 7640 ft | 264 kts | 54° |
| 2026-05-04 19:50 | 51.35389 | 7.12978 | 7281 ft | 269 kts | 54° |
| 2026-05-04 19:50 | 51.36504 | 7.15322 | 6907 ft | 262 kts | 54° |
| 2026-05-04 19:51 | 51.37585 | 7.17596 | 6516 ft | 254 kts | 54° |
| 2026-05-04 19:51 | 51.38645 | 7.19851 | 6132 ft | 254 kts | 55° |
| 2026-05-04 19:51 | 51.39693 | 7.22086 | 5765 ft | 253 kts | 54° |
| 2026-05-04 19:51 | 51.40736 | 7.24309 | 5405 ft | 249 kts | 53° |
| 2026-05-04 19:52 | 51.41745 | 7.26457 | 5110 ft | 236 kts | 54° |
| 2026-05-04 19:52 | 51.42737 | 7.28569 | 5014 ft | 232 kts | 53° |
| 2026-05-04 19:52 | 51.43695 | 7.30622 | 5006 ft | 234 kts | 54° |
| 2026-05-04 19:52 | 51.44673 | 7.32743 | 4998 ft | 242 kts | 53° |
| 2026-05-04 19:53 | 51.45758 | 7.34844 | 4963 ft | 244 kts | 41° |
| 2026-05-04 19:53 | 51.47227 | 7.36017 | 4974 ft | 240 kts | 10° |
| 2026-05-04 19:53 | 51.48883 | 7.35875 | 4987 ft | 238 kts | 339° |
| 2026-05-04 19:53 | 51.50252 | 7.34452 | 4972 ft | 236 kts | 310° |
| 2026-05-04 19:54 | 51.51006 | 7.32200 | 4777 ft | 239 kts | 281° |
| 2026-05-04 19:54 | 51.51079 | 7.29549 | 4561 ft | 233 kts | 264° |
| 2026-05-04 19:54 | 51.50941 | 7.26992 | 4304 ft | 230 kts | 264° |
| 2026-05-04 19:54 | 51.50814 | 7.24451 | 4024 ft | 227 kts | 264° |
| 2026-05-04 19:55 | 51.50521 | 7.22019 | 3767 ft | 225 kts | 245° |
| 2026-05-04 19:55 | 51.49734 | 7.19971 | 3554 ft | 224 kts | 232° |
| 2026-05-04 19:55 | 51.48728 | 7.17916 | 3300 ft | 224 kts | 231° |
| 2026-05-04 19:55 | 51.47791 | 7.15958 | 3089 ft | 216 kts | 232° |
| 2026-05-04 19:56 | 51.46944 | 7.14164 | 3005 ft | 194 kts | 232° |
| 2026-05-04 19:56 | 51.46172 | 7.12526 | 2968 ft | 171 kts | 232° |
| 2026-05-04 19:56 | 51.45478 | 7.11051 | 2974 ft | 166 kts | 232° |
| 2026-05-04 19:56 | 51.44783 | 7.09547 | 2981 ft | 168 kts | 232° |
| 2026-05-04 19:57 | 51.44088 | 7.08061 | 2979 ft | 170 kts | 232° |
| 2026-05-04 19:57 | 51.43379 | 7.06555 | 2976 ft | 172 kts | 232° |
| 2026-05-04 19:57 | 51.42654 | 7.05015 | 2974 ft | 172 kts | 232° |
| 2026-05-04 19:57 | 51.41943 | 7.03510 | 2970 ft | 167 kts | 232° |
| 2026-05-04 19:58 | 51.41259 | 7.02058 | 2973 ft | 165 kts | 232° |
| 2026-05-04 19:58 | 51.40560 | 7.00566 | 2974 ft | 167 kts | 231° |
| 2026-05-04 19:58 | 51.39864 | 6.99092 | 2968 ft | 167 kts | 231° |
| 2026-05-04 19:58 | 51.39165 | 6.97622 | 2988 ft | 167 kts | 232° |
| 2026-05-04 19:59 | 51.38457 | 6.96120 | 2975 ft | 166 kts | 232° |
| 2026-05-04 19:59 | 51.37779 | 6.94668 | 2904 ft | 166 kts | 232° |
| 2026-05-04 19:59 | 51.37063 | 6.93159 | 2638 ft | 168 kts | 231° |
| 2026-05-04 19:59 | 51.36364 | 6.91701 | 2413 ft | 165 kts | 231° |
| 2026-05-04 20:00 | 51.35672 | 6.90227 | 2197 ft | 168 kts | 232° |
| 2026-05-04 20:00 | 51.34968 | 6.88741 | 1916 ft | 169 kts | 231° |
| 2026-05-04 20:00 | 51.34253 | 6.87235 | 1661 ft | 168 kts | 231° |
| 2026-05-04 20:00 | 51.33555 | 6.85763 | 1411 ft | 161 kts | 231° |
| 2026-05-04 20:01 | 51.32904 | 6.84404 | 1172 ft | 146 kts | 231° |
| 2026-05-04 20:01 | 51.32320 | 6.83173 | 981 ft | 135 kts | 231° |
| 2026-05-04 20:01 | 51.31768 | 6.82004 | 814 ft | 128 kts | 231° |
| 2026-05-04 20:01 | 51.31245 | 6.80902 | 662 ft | 126 kts | 231° |
| 2026-05-04 20:02 | 51.30705 | 6.79769 | 530 ft | 129 kts | 231° |
| 2026-05-04 20:02 | 51.30160 | 6.78629 | 347 ft | 129 kts | 231° |
| 2026-05-04 20:02 | 51.29617 | 6.77489 | 153 ft | 127 kts | 231° |
| 2026-05-04 20:02 | 51.29152 | 6.76522 | 128 ft | 83 kts | 233° |
| 2026-05-04 20:03 | 51.28875 | 6.75937 | 125 ft | 48 kts | 230° |
| 2026-05-04 20:03 | 51.28652 | 6.75685 | 122 ft | 30 kts | 189° |
| 2026-05-04 20:03 | 51.28557 | 6.75694 | 122 ft | 4 kts | 165° |
| 2026-05-04 20:03 | 51.28529 | 6.75707 | 122 ft | 3 kts | 162° |
| 2026-05-04 20:04 | 51.28505 | 6.75727 | 122 ft | 7 kts | 145° |
| 2026-05-04 20:04 | 51.28464 | 6.75774 | 122 ft | 6 kts | 143° |
| 2026-05-04 20:04 | 51.28460 | 6.75779 | 122 ft | 0 kts | 143° |
| 2026-05-04 20:05 | 51.28445 | 6.75797 | 122 ft | 6 kts | 143° |
| 2026-05-04 20:05 | 51.28407 | 6.75842 | 122 ft | 6 kts | 143° |
| 2026-05-04 20:05 | 51.28399 | 6.75852 | 122 ft | 0 kts | 143° |
| 2026-05-04 20:09 | 51.28366 | 6.75891 | 122 ft | 11 kts | 142° |
| 2026-05-04 20:10 | 51.28281 | 6.75978 | 121 ft | 15 kts | 161° |
| 2026-05-04 20:10 | 51.28202 | 6.75956 | 119 ft | 8 kts | 203° |
| 2026-05-04 20:10 | 51.28150 | 6.75918 | 119 ft | 7 kts | 205° |
| 2026-05-04 20:10 | 51.28115 | 6.75892 | 119 ft | 7 kts | 205° |
| 2026-05-04 20:11 | 51.28046 | 6.75840 | 118 ft | 10 kts | 205° |
| 2026-05-04 20:11 | 51.27971 | 6.75821 | 119 ft | 10 kts | 183° |
| 2026-05-04 20:11 | 51.27908 | 6.75817 | 121 ft | 7 kts | 182° |
| 2026-05-04 20:11 | 51.27867 | 6.75815 | 121 ft | 7 kts | 182° |
| 2026-05-04 20:12 | 51.27802 | 6.75814 | 123 ft | 5 kts | 180° |
| 2026-05-04 20:12 | 51.27786 | 6.75843 | 123 ft | 5 kts | 105° |
| 2026-05-04 20:12 | 51.27784 | 6.75896 | 123 ft | 4 kts | 91° |
| 2026-05-04 20:12 | 51.27784 | 6.75910 | 123 ft | 0 kts | 91° |